Helen, Maryland
Current Conditions -  °F | °C
As of 3:32 AM on Friday 19 Dec 2014 (Local Time) from K2W6 Reporting Station
Overcast Overcast  
Wind Chill: 30°   Ceiling: 6000
Heat Index: 34°   Visibility: 10mi
Dew Point: 23°   Wind: 5mph
Humidity: 65%   Direction: 290°WNW
Pressure: 30.12"   Gusts: NA
Location:  38.38°N, 76.72°W
Report Text: K2W6 190832Z AUTO 29004KT 10SM BKN060 OVC095 01/M05 A3012 RMK AO1
Loading
Personal Weather Stations






























Interactive Weather Map New forecast layout! Learn more

10-Day Weather Forecast

Advertisements
Track Severe Weather on mobile